Time;durP1;ratioP1;P1;durP2;ratioP2;P2;SDS_P1;SDS_P2;PMS_P1;PMS_P2;Temp;Humidity;BMP_temperature;BMP_pressure;BME280_temperature;BME280_humidity;BME280_pressure;Samples;Min_cycle;Max_cycle;Signal;HPM_P1;HPM_P2
2022/07/03 00:03:04;;;;;;;3.20;2.30;;;;;;;21.36;52.42;98944.84;6971774;28;20257;-82
2022/07/03 00:06:26;;;;;;;2.23;2.03;;;;;;;20.95;53.28;98934.84;6967811;28;20730;-82
2022/07/03 00:09:47;;;;;;;2.30;1.90;;;;;;;21.14;53.09;98939.53;6952432;28;20220;-82
2022/07/03 00:13:10;;;;;;;3.10;2.07;;;;;;;20.99;53.65;98960.59;6952425;28;20230;-82
2022/07/03 00:16:32;;;;;;;2.57;2.33;;;;;;;20.81;53.88;98935.56;6978603;28;20221;-83
2022/07/03 00:19:55;;;;;;;2.40;2.13;;;;;;;20.71;54.41;98941.84;6952015;28;20207;-83
2022/07/03 00:23:18;;;;;;;2.60;2.40;;;;;;;20.74;54.25;98944.03;6949760;28;20262;-82
2022/07/03 00:26:42;;;;;;;2.30;2.10;;;;;;;20.56;55.25;98949.97;6950398;28;20250;-82
2022/07/03 00:30:07;;;;;;;3.07;2.77;;;;;;;20.38;55.50;98963.25;6950112;28;20928;-82
2022/07/03 00:33:31;;;;;;;3.63;2.60;;;;;;;20.48;55.21;98949.63;6959174;28;20472;-82
2022/07/03 00:36:53;;;;;;;4.37;2.40;;;;;;;20.55;54.57;98950.22;6954594;28;20760;-82
2022/07/03 00:40:15;;;;;;;2.33;2.10;;;;;;;20.57;54.82;98956.28;6950462;28;20211;-82
2022/07/03 00:43:37;;;;;;;2.63;2.10;;;;;;;20.35;55.87;98952.84;6951047;28;20231;-83
2022/07/03 00:47:03;;;;;;;2.30;2.20;;;;;;;20.57;55.07;98957.09;6951132;28;20246;-82
2022/07/03 00:50:26;;;;;;;2.63;2.30;;;;;;;20.09;55.59;98946.38;6950236;28;20222;-82
2022/07/03 00:53:50;;;;;;;2.63;2.30;;;;;;;20.11;56.43;98957.06;6950341;28;20260;-83
2022/07/03 00:57:14;;;;;;;2.40;2.20;;;;;;;20.31;56.28;98955.28;6957522;28;20210;-82
2022/07/03 01:00:40;;;;;;;2.97;2.20;;;;;;;20.63;54.73;98956.03;6977455;28;20260;-82
2022/07/03 01:04:15;;;;;;;2.17;2.00;;;;;;;20.87;54.04;98951.75;6978306;28;20219;-83
2022/07/03 01:07:42;;;;;;;2.10;2.00;;;;;;;21.25;52.89;98951.38;6978306;28;20297;-82
2022/07/03 01:11:09;;;;;;;3.00;2.00;;;;;;;21.03;52.99;98937.06;6978327;28;20201;-82
2022/07/03 01:14:40;;;;;;;3.53;2.63;;;;;;;20.69;54.39;98940.44;6978036;28;20233;-82
2022/07/03 01:18:09;;;;;;;2.47;2.20;;;;;;;20.80;53.83;98962.13;6977461;28;20197;-83
2022/07/03 01:21:36;;;;;;;3.00;2.50;;;;;;;20.44;54.80;98962.19;6977707;28;20215;-82
2022/07/03 01:25:13;;;;;;;2.80;2.40;;;;;;;20.14;55.99;98960.09;6977837;28;20311;-82
2022/07/03 01:28:37;;;;;;;2.47;2.27;;;;;;;19.00;59.27;98951.53;6977661;28;20202;-82
2022/07/03 01:31:59;;;;;;;3.27;2.30;;;;;;;19.62;58.33;98945.38;6977330;28;20225;-82
2022/07/03 01:35:22;;;;;;;3.93;2.40;;;;;;;19.91;56.86;98924.84;6977274;28;20272;-82
2022/07/03 01:38:44;;;;;;;2.50;2.30;;;;;;;20.01;56.69;98930.41;6976628;28;20312;-83
2022/07/03 01:42:07;;;;;;;2.47;2.30;;;;;;;19.82;57.46;98933.81;6977358;28;20264;-79
2022/07/03 01:45:32;;;;;;;2.77;2.30;;;;;;;19.41;58.80;98939.97;6976346;28;20210;-80
2022/07/03 01:48:55;;;;;;;3.77;2.40;;;;;;;19.96;56.83;98943.22;6975660;28;20248;-80
2022/07/03 01:52:17;;;;;;;4.20;2.60;;;;;;;19.56;58.04;98946.44;6976395;28;20688;-80
2022/07/03 01:55:40;;;;;;;3.37;2.60;;;;;;;19.56;58.18;98937.38;6976695;28;20226;-80
2022/07/03 01:59:03;;;;;;;3.87;2.50;;;;;;;19.87;57.38;98945.59;6975956;28;20308;-79
2022/07/03 02:02:33;;;;;;;3.00;2.30;;;;;;;19.76;57.63;98941.13;6980860;28;20245;-81
2022/07/03 02:06:02;;;;;;;3.17;2.60;;;;;;;19.59;58.35;98943.19;6976684;28;20194;-81
2022/07/03 02:09:29;;;;;;;3.10;2.50;;;;;;;19.90;57.22;98949.72;6976489;28;20211;-81
2022/07/03 02:12:53;;;;;;;2.67;2.40;;;;;;;20.26;56.03;98955.25;6977717;28;20252;-81
2022/07/03 02:16:19;;;;;;;2.60;2.40;;;;;;;20.13;56.29;98944.75;6995032;28;20211;-82
2022/07/03 02:19:45;;;;;;;2.60;2.40;;;;;;;20.07;56.37;98948.56;6979130;28;20214;-81
2022/07/03 02:23:08;;;;;;;3.17;2.60;;;;;;;19.94;56.02;98954.41;6975458;28;20591;-81
2022/07/03 02:26:33;;;;;;;2.53;2.33;;;;;;;19.73;56.32;98910.72;6974928;28;20210;-81
2022/07/03 02:29:57;;;;;;;3.73;2.43;;;;;;;19.71;57.39;98945.75;6975864;28;20199;-81
2022/07/03 02:33:20;;;;;;;3.70;2.10;;;;;;;19.64;57.36;98945.94;6983536;28;20222;-82
2022/07/03 02:36:47;;;;;;;3.53;2.20;;;;;;;19.57;57.79;98937.13;6981324;28;20232;-81
2022/07/03 02:40:20;;;;;;;2.10;2.00;;;;;;;19.87;57.43;98931.91;6976590;28;20225;-81
2022/07/03 02:43:45;;;;;;;2.33;2.23;;;;;;;19.84;57.24;98926.16;6976048;28;20295;-81
2022/07/03 02:47:12;;;;;;;3.80;2.57;;;;;;;19.70;58.05;98950.38;6975899;28;20207;-81
2022/07/03 02:50:36;;;;;;;4.10;2.80;;;;;;;19.92;57.62;98942.09;6975940;28;20325;-81
2022/07/03 02:54:03;;;;;;;2.50;2.30;;;;;;;19.96;55.95;98915.84;6977392;28;20234;-80
2022/07/03 02:57:25;;;;;;;5.33;2.53;;;;;;;19.48;58.28;98924.19;6979690;28;20207;-81
2022/07/03 03:00:54;;;;;;;3.07;2.40;;;;;;;19.55;58.32;98933.84;6983188;28;20199;-81
2022/07/03 03:04:23;;;;;;;2.43;2.13;;;;;;;19.76;57.36;98938.38;6983644;28;20263;-81
2022/07/03 03:07:54;;;;;;;2.43;2.23;;;;;;;19.78;57.60;98958.13;6982605;28;20339;-81
2022/07/03 03:11:24;;;;;;;3.60;3.30;;;;;;;19.32;57.76;98903.25;6983530;28;20548;-81
2022/07/03 03:14:54;;;;;;;2.50;2.30;;;;;;;19.88;56.97;98954.66;6982789;28;20236;-80
2022/07/03 03:18:22;;;;;;;5.90;2.83;;;;;;;19.73;57.80;98963.53;6982541;28;20196;-81
2022/07/03 03:21:56;;;;;;;2.70;2.50;;;;;;;19.70;57.73;98957.78;6982446;28;20182;-81
2022/07/03 03:25:17;;;;;;;2.90;2.70;;;;;;;19.50;57.41;98931.03;6981438;28;20187;-82
2022/07/03 03:28:41;;;;;;;2.73;2.53;;;;;;;19.58;58.06;98968.06;6981780;28;20189;-81
2022/07/03 03:32:04;;;;;;;2.80;2.60;;;;;;;19.51;58.61;98949.09;6982131;28;20546;-81
2022/07/03 03:35:26;;;;;;;2.90;2.67;;;;;;;19.55;58.23;98972.13;6982336;28;20221;-81
2022/07/03 03:38:48;;;;;;;3.13;2.80;;;;;;;19.56;57.98;98948.31;6982187;28;20217;-81
2022/07/03 03:42:10;;;;;;;4.30;3.90;;;;;;;19.66;58.30;98967.56;6982961;28;20223;-81
2022/07/03 03:45:33;;;;;;;4.03;2.60;;;;;;;19.77;57.67;98983.00;6981841;28;20221;-81
2022/07/03 03:48:55;;;;;;;2.93;2.57;;;;;;;19.63;57.38;98959.91;6981863;28;20268;-81
2022/07/03 03:52:17;;;;;;;4.23;2.43;;;;;;;19.89;57.53;98969.97;6982681;28;20227;-82
2022/07/03 03:55:38;;;;;;;2.60;2.40;;;;;;;19.71;57.36;98963.00;6981987;28;20233;-81
2022/07/03 03:59:00;;;;;;;3.47;2.67;;;;;;;19.75;57.53;98964.09;6981908;28;20214;-81
2022/07/03 04:02:23;;;;;;;3.53;2.53;;;;;;;19.53;57.88;98979.78;6986668;28;20250;-82
2022/07/03 04:05:45;;;;;;;2.87;2.57;;;;;;;19.25;59.94;98980.00;6990624;28;20270;-81
2022/07/03 04:09:06;;;;;;;3.00;2.70;;;;;;;19.56;58.97;98964.72;6986520;28;20233;-81
2022/07/03 04:12:28;;;;;;;2.73;2.40;;;;;;;19.57;58.64;98955.47;6986674;28;20234;-80
2022/07/03 04:15:51;;;;;;;3.47;2.70;;;;;;;19.93;57.48;98957.44;6999275;28;20230;-82
2022/07/03 04:19:13;;;;;;;3.53;2.97;;;;;;;19.54;58.42;98956.81;7002790;28;20279;-82
2022/07/03 04:22:35;;;;;;;3.50;2.90;;;;;;;19.09;59.57;98953.53;6987809;28;20231;-81
2022/07/03 04:25:57;;;;;;;3.10;2.80;;;;;;;19.01;59.10;98890.31;6985067;28;20209;-82
2022/07/03 04:29:18;;;;;;;3.03;2.67;;;;;;;19.71;58.27;98962.16;6994051;28;20207;-82
2022/07/03 04:32:40;;;;;;;3.37;3.07;;;;;;;19.43;59.85;98966.00;6993708;28;20218;-82
2022/07/03 04:36:04;;;;;;;2.93;2.67;;;;;;;19.76;58.62;98979.44;6986666;28;20362;-81
2022/07/03 04:39:26;;;;;;;3.20;2.90;;;;;;;19.68;59.16;98990.00;6980432;28;20675;-81
2022/07/03 04:42:47;;;;;;;3.13;2.77;;;;;;;19.99;58.25;98990.03;6979574;28;20248;-81
2022/07/03 04:46:09;;;;;;;3.10;2.47;;;;;;;20.06;58.54;98995.31;6980068;28;20212;-81
2022/07/03 04:49:30;;;;;;;3.57;3.03;;;;;;;20.36;57.69;99001.03;6979291;28;20215;-81
2022/07/03 04:52:53;;;;;;;4.63;2.77;;;;;;;20.67;56.50;98959.06;6979945;28;20284;-82
2022/07/03 04:56:15;;;;;;;3.07;2.73;;;;;;;21.16;55.91;98988.66;6979119;28;20235;-82
2022/07/03 04:59:36;;;;;;;2.60;2.40;;;;;;;21.64;54.59;98990.97;6978184;28;20225;-82
2022/07/03 05:02:59;;;;;;;4.03;2.70;;;;;;;22.08;54.04;99012.19;6978834;28;20299;-81
2022/07/03 05:06:21;;;;;;;5.43;2.40;;;;;;;22.51;52.28;99008.94;6978284;28;20202;-81
2022/07/03 05:09:44;;;;;;;3.20;2.33;;;;;;;22.37;52.90;99016.03;6978678;28;20371;-81
2022/07/03 05:13:05;;;;;;;2.40;2.30;;;;;;;23.19;51.45;99010.97;6978469;28;20350;-81
2022/07/03 05:16:27;;;;;;;2.60;2.40;;;;;;;22.56;52.94;98994.34;6978007;28;20228;-81
2022/07/03 05:20:23;;;;;;;3.43;2.40;;;;;;;23.59;51.15;99004.47;6977120;28;20299;-80
2022/07/03 05:23:30;;;;;;;3.77;2.30;;;;;;;23.40;50.67;98998.78;6978628;28;20240;-81
2022/07/03 05:26:53;;;;;;;2.80;2.30;;;;;;;23.59;50.35;99012.72;6976568;28;20504;-81
2022/07/03 05:30:15;;;;;;;3.90;2.33;;;;;;;24.56;50.13;99004.28;6977642;28;20205;-81
2022/07/03 05:33:37;;;;;;;2.90;2.23;;;;;;;24.71;47.04;98957.28;6978584;28;20256;-81
2022/07/03 05:36:58;;;;;;;5.70;2.43;;;;;;;25.25;47.51;99001.94;6978673;28;20226;-81
2022/07/03 05:40:20;;;;;;;2.57;2.33;;;;;;;24.83;48.02;98988.84;6979575;28;20289;-81
2022/07/03 05:43:43;;;;;;;1.90;1.80;;;;;;;25.73;47.26;99018.09;6981118;28;20256;-81
2022/07/03 05:47:05;;;;;;;2.17;1.97;;;;;;;25.48;46.54;99006.59;6982263;28;20205;-80
2022/07/03 05:50:27;;;;;;;2.10;2.00;;;;;;;26.47;45.50;99012.53;6976828;28;20233;-81
2022/07/03 05:53:48;;;;;;;3.43;2.20;;;;;;;26.76;44.60;99004.84;6972830;28;20345;-77
2022/07/03 05:57:10;;;;;;;2.30;2.10;;;;;;;27.05;44.45;99007.34;6966967;28;20261;-80
2022/07/03 06:00:33;;;;;;;4.10;2.00;;;;;;;27.37;43.10;99008.09;6964743;28;20204;-80
2022/07/03 06:03:54;;;;;;;2.83;2.40;;;;;;;27.56;43.59;98994.94;6958594;28;20223;-80
2022/07/03 06:07:16;;;;;;;1.83;1.73;;;;;;;28.16;41.80;98992.72;6951593;28;20233;-80
2022/07/03 06:10:38;;;;;;;2.40;2.00;;;;;;;28.85;40.90;98995.66;6949395;28;20203;-80
2022/07/03 06:13:59;;;;;;;3.03;1.80;;;;;;;28.84;39.56;98982.91;6982020;28;20220;-80
2022/07/03 06:17:22;;;;;;;1.93;1.70;;;;;;;29.76;36.88;98994.72;6969896;28;20262;-81
2022/07/03 06:20:44;;;;;;;3.50;1.97;;;;;;;29.45;38.72;98991.19;6974620;28;20285;-81
2022/07/03 06:24:06;;;;;;;1.70;1.60;;;;;;;30.03;36.11;98985.25;6974895;28;20225;-81
2022/07/03 06:27:28;;;;;;;1.87;1.77;;;;;;;30.23;35.83;98981.81;6974231;28;20264;-81
2022/07/03 06:30:50;;;;;;;1.30;1.30;;;;;;;30.87;34.62;98989.91;6974946;28;20263;-81
2022/07/03 06:34:12;;;;;;;1.50;1.40;;;;;;;30.41;35.37;98978.69;6980104;28;20771;-81
2022/07/03 06:37:34;;;;;;;1.83;1.73;;;;;;;30.65;35.63;98992.94;6979918;28;20266;-82
2022/07/03 06:40:56;;;;;;;1.87;1.77;;;;;;;31.11;35.05;98990.16;6980868;28;20234;-81
2022/07/03 06:44:17;;;;;;;2.67;1.80;;;;;;;30.94;35.68;98997.75;6980833;28;20612;-81
2022/07/03 06:47:39;;;;;;;3.10;1.60;;;;;;;31.34;35.33;98990.72;6980624;28;20664;-81
2022/07/03 06:51:02;;;;;;;2.50;1.77;;;;;;;31.03;35.33;98988.22;6982840;28;20209;-81
2022/07/03 06:54:23;;;;;;;3.27;1.60;;;;;;;30.88;35.83;98991.56;6980872;28;20253;-81
2022/07/03 06:57:45;;;;;;;1.97;1.87;;;;;;;31.02;34.94;98977.41;6981287;28;20243;-80
2022/07/03 07:01:06;;;;;;;3.20;1.90;;;;;;;30.88;35.45;98993.50;6981948;28;20228;-81
2022/07/03 07:04:28;;;;;;;2.13;1.60;;;;;;;31.44;34.86;98993.13;6981201;28;20705;-81
2022/07/03 07:07:51;;;;;;;1.43;1.37;;;;;;;31.54;33.86;98993.56;6980076;28;20213;-81
2022/07/03 07:11:13;;;;;;;1.73;1.63;;;;;;;31.62;33.73;98977.94;6981676;28;20688;-81
2022/07/03 07:14:34;;;;;;;1.77;1.67;;;;;;;32.13;33.73;99006.28;6980868;28;20393;-81
2022/07/03 07:17:56;;;;;;;1.73;1.50;;;;;;;32.15;33.60;98998.41;6980705;28;20233;-81
2022/07/03 07:21:17;;;;;;;1.70;1.60;;;;;;;32.11;33.42;98974.28;6981070;28;20216;-81
2022/07/03 07:24:40;;;;;;;1.57;1.47;;;;;;;31.77;33.66;99002.47;6980315;28;20255;-81
2022/07/03 07:28:02;;;;;;;1.97;1.50;;;;;;;32.08;33.42;99000.09;6980603;28;20206;-81
2022/07/03 07:31:23;;;;;;;4.70;1.97;;;;;;;32.81;32.51;98996.50;6965716;28;20314;-81
2022/07/03 07:34:45;;;;;;;1.73;1.63;;;;;;;33.02;32.90;98998.03;6972680;28;20230;-81
2022/07/03 07:38:06;;;;;;;2.87;1.70;;;;;;;32.89;32.46;98996.41;6979764;28;20226;-80
2022/07/03 07:41:29;;;;;;;1.53;1.43;;;;;;;32.86;33.15;98994.31;6979490;28;20692;-80
2022/07/03 07:44:51;;;;;;;1.90;1.53;;;;;;;33.53;31.06;98989.03;6979604;28;20273;-81
2022/07/03 07:48:12;;;;;;;3.13;1.60;;;;;;;33.44;31.35;98993.09;6978940;28;20206;-80
2022/07/03 07:51:34;;;;;;;4.63;1.50;;;;;;;32.71;30.99;99002.47;6971936;28;20214;-79
2022/07/03 07:54:55;;;;;;;2.60;1.40;;;;;;;32.77;30.63;99004.75;6976283;28;20264;-80
2022/07/03 07:58:18;;;;;;;1.43;1.33;;;;;;;32.60;30.26;98990.13;6969490;28;20242;-80
2022/07/03 08:05:38;;;;;;;1.43;1.40;;;;;;;32.37;31.65;98983.31;6988752;28;20195;-80
2022/07/03 08:08:59;;;;;;;1.63;1.53;;;;;;;33.25;31.09;98985.25;6988829;28;20205;-81
2022/07/03 08:12:21;;;;;;;2.97;1.60;;;;;;;32.43;30.71;98996.69;6979614;28;20710;-80
2022/07/03 08:15:44;;;;;;;2.40;1.43;;;;;;;33.36;30.20;98968.88;6979815;28;20205;-81
2022/07/03 08:19:06;;;;;;;1.53;1.43;;;;;;;34.02;29.45;98971.00;6979140;28;20244;-81
2022/07/03 08:22:27;;;;;;;3.07;1.53;;;;;;;32.43;30.36;98949.22;6979437;28;20242;-80
2022/07/03 08:25:49;;;;;;;1.60;1.30;;;;;;;34.06;28.67;98965.50;6978001;28;20288;-81
2022/07/03 08:29:11;;;;;;;2.47;1.43;;;;;;;33.52;29.08;98967.00;6978434;28;20178;-80
2022/07/03 08:32:34;;;;;;;1.30;1.20;;;;;;;33.83;28.62;98990.41;6979640;28;20219;-80
2022/07/03 08:35:55;;;;;;;1.30;1.20;;;;;;;33.39;28.45;98943.00;6979405;28;20257;-80
2022/07/03 08:39:17;;;;;;;1.67;1.20;;;;;;;33.83;28.44;98984.81;6978275;28;20206;-81
2022/07/03 08:42:43;;;;;;;2.20;1.30;;;;;;;33.81;28.35;98978.78;6979660;28;20226;-80
2022/07/03 08:46:06;;;;;;;1.53;1.20;;;;;;;33.88;28.63;98959.41;6969303;28;20203;-81
2022/07/03 08:49:30;;;;;;;1.67;1.40;;;;;;;33.73;25.91;98953.69;6951280;28;20230;-81
2022/07/03 08:52:52;;;;;;;1.70;1.03;;;;;;;33.05;27.39;98972.22;6956667;28;20305;-80
2022/07/03 08:56:13;;;;;;;2.00;1.30;;;;;;;33.71;27.03;98972.78;6978793;28;20222;-81
2022/07/03 08:59:38;;;;;;;1.50;1.40;;;;;;;34.41;27.10;98975.78;6977779;28;20210;-81
2022/07/03 09:03:04;;;;;;;3.37;1.30;;;;;;;34.63;27.55;98964.03;6978375;28;20254;-80
2022/07/03 09:06:33;;;;;;;1.10;1.00;;;;;;;35.05;25.72;98969.97;6977898;28;20861;-80
2022/07/03 09:09:55;;;;;;;1.20;1.10;;;;;;;34.98;26.24;98967.81;6978123;28;20209;-79
2022/07/03 09:13:17;;;;;;;1.17;1.07;;;;;;;35.21;23.41;98949.16;6977278;28;20230;-84
2022/07/03 09:16:39;;;;;;;3.73;1.47;;;;;;;35.35;24.59;98963.56;6978343;28;20227;-82
2022/07/03 09:20:03;;;;;;;0.93;0.90;;;;;;;35.35;23.25;98963.56;6977928;28;20288;-82
2022/07/03 09:23:28;;;;;;;1.80;1.20;;;;;;;35.11;22.35;98924.47;6979542;28;20230;-82
2022/07/03 09:26:52;;;;;;;0.80;0.73;;;;;;;35.18;23.25;98944.28;6986506;28;20822;-82
2022/07/03 09:30:14;;;;;;;2.00;1.03;;;;;;;34.58;23.71;98960.66;6992218;28;20251;-81
2022/07/03 09:33:35;;;;;;;0.97;0.80;;;;;;;34.74;23.99;98933.47;6982134;28;20226;-82
2022/07/03 09:36:57;;;;;;;0.90;0.90;;;;;;;35.58;23.89;98958.09;6984040;28;20250;-83
2022/07/03 09:40:20;;;;;;;1.90;0.80;;;;;;;35.43;22.64;98956.94;6988196;28;20712;-82
2022/07/03 09:43:43;;;;;;;0.80;0.80;;;;;;;34.99;22.10;98947.00;6988283;28;20219;-82
2022/07/03 09:47:23;;;;;;;1.67;0.77;;;;;;;34.41;22.55;98945.00;6980457;28;20214;-81
2022/07/03 09:50:44;;;;;;;1.40;0.90;;;;;;;34.40;23.27;98943.38;6977197;28;20252;-82
2022/07/03 09:54:06;;;;;;;0.90;0.90;;;;;;;35.41;21.47;98944.44;6978539;28;20229;-81
2022/07/03 09:57:29;;;;;;;1.30;1.07;;;;;;;35.41;21.48;98944.44;6976878;28;20388;-81
2022/07/03 10:00:51;;;;;;;2.13;0.87;;;;;;;35.59;21.24;98932.47;6976102;28;20198;-83
2022/07/03 10:04:18;;;;;;;1.17;0.90;;;;;;;35.81;21.14;98937.44;6977199;28;20210;-83
2022/07/03 10:07:51;;;;;;;1.97;1.00;;;;;;;36.42;20.09;98920.69;6974021;28;20596;-83
2022/07/03 10:11:12;;;;;;;0.93;0.70;;;;;;;35.63;22.14;98935.38;6975250;28;20182;-82
2022/07/03 10:14:35;;;;;;;0.80;0.70;;;;;;;35.78;21.21;98935.34;6975532;28;20746;-82
2022/07/03 10:17:58;;;;;;;0.90;0.90;;;;;;;36.48;21.44;98927.63;6970436;28;20233;-81
2022/07/03 10:21:20;;;;;;;1.17;0.90;;;;;;;36.73;20.68;98938.16;6974053;28;20238;-81
2022/07/03 10:24:43;;;;;;;1.10;1.07;;;;;;;36.87;20.81;98930.00;6948819;28;20322;-82
2022/07/03 10:28:05;;;;;;;2.17;1.07;;;;;;;36.69;21.67;98928.88;6947534;28;20293;-80
2022/07/03 10:31:29;;;;;;;3.33;2.87;;;;;;;36.15;21.27;98916.09;6950419;28;20230;-81
2022/07/03 10:34:50;;;;;;;1.57;1.30;;;;;;;35.61;20.88;98920.91;6960785;28;20226;-80
2022/07/03 10:38:24;;;;;;;3.77;2.60;;;;;;;36.13;20.78;98935.31;6946962;28;20227;-80
2022/07/03 10:45:28;;;;;;;0.77;0.77;;;;;;;36.45;20.62;98934.81;6947789;28;20207;-81
2022/07/03 10:49:05;;;;;;;1.07;0.83;;;;;;;35.65;21.48;98925.41;6970244;28;20214;-80
2022/07/03 10:52:27;;;;;;;1.43;1.07;;;;;;;36.55;20.89;98905.28;6974233;28;20226;-81
2022/07/03 10:56:03;;;;;;;2.90;1.07;;;;;;;36.40;21.20;98929.47;6974531;28;20230;-81
2022/07/03 10:59:24;;;;;;;0.80;0.80;;;;;;;36.62;21.16;98911.03;6973990;28;20228;-81
2022/07/03 11:02:48;;;;;;;1.73;1.23;;;;;;;37.19;20.21;98917.31;6974122;28;20227;-81
2022/07/03 11:06:11;;;;;;;4.37;0.90;;;;;;;36.74;19.82;98888.38;6969209;28;20288;-80
2022/07/03 11:09:33;;;;;;;1.27;1.00;;;;;;;36.98;21.23;98910.50;6974604;28;20214;-81
2022/07/03 11:12:55;;;;;;;1.60;0.80;;;;;;;36.56;20.56;98907.69;6974660;28;20222;-81
2022/07/03 11:16:23;;;;;;;3.20;1.00;;;;;;;36.81;20.67;98902.56;6975767;28;20203;-83
2022/07/03 11:20:23;;;;;;;1.80;0.97;;;;;;;36.44;20.49;98896.63;6979212;28;20190;-82
2022/07/03 11:23:30;;;;;;;1.20;0.97;;;;;;;36.00;22.24;98892.53;6976277;28;20357;-83
2022/07/03 11:27:29;;;;;;;1.60;0.93;;;;;;;35.19;21.66;98903.84;6953519;28;20216;-82
2022/07/03 11:31:18;;;;;;;4.63;0.80;;;;;;;36.52;20.93;98892.78;6952346;28;20183;-82
2022/07/03 11:34:43;;;;;;;2.27;1.00;;;;;;;37.57;20.25;98886.19;6952759;28;20219;-83
2022/07/03 11:38:05;;;;;;;3.07;1.00;;;;;;;36.84;21.06;98888.56;6952000;28;20227;-82
2022/07/03 11:41:28;;;;;;;0.77;0.77;;;;;;;36.64;21.19;98872.97;6957350;28;20203;-82
2022/07/03 11:44:50;;;;;;;0.70;0.70;;;;;;;36.73;20.72;98867.88;6952975;28;20604;-82
2022/07/03 11:48:15;;;;;;;1.03;0.93;;;;;;;36.90;20.88;98883.47;6952295;28;20250;-82
2022/07/03 11:51:38;;;;;;;0.97;0.97;;;;;;;37.12;20.92;98877.81;6953138;28;20207;-82
2022/07/03 11:54:59;;;;;;;0.90;0.90;;;;;;;37.28;20.40;98861.63;6953434;28;20234;-82
2022/07/03 11:58:23;;;;;;;1.33;0.83;;;;;;;37.10;20.84;98865.34;6975807;28;20256;-82
2022/07/03 12:01:46;;;;;;;1.10;1.00;;;;;;;37.14;20.54;98866.22;6981490;28;20226;-82
2022/07/03 12:05:14;;;;;;;1.20;1.10;;;;;;;37.09;20.88;98858.88;6988648;28;20255;-82
2022/07/03 12:08:37;;;;;;;0.97;0.83;;;;;;;36.58;20.69;98862.38;6988166;28;20206;-83
2022/07/03 12:12:00;;;;;;;0.93;0.90;;;;;;;35.14;21.28;98848.03;6979047;28;20301;-82
2022/07/03 12:15:24;;;;;;;1.20;1.00;;;;;;;36.54;21.72;98856.69;6957717;28;20202;-82
2022/07/03 12:18:47;;;;;;;1.17;0.90;;;;;;;37.01;20.39;98861.97;6950538;28;20717;-83
2022/07/03 12:22:09;;;;;;;0.97;0.87;;;;;;;36.53;22.18;98852.25;6951594;28;20298;-82
2022/07/03 12:25:31;;;;;;;1.33;0.90;;;;;;;36.30;20.91;98864.66;6951249;28;20249;-83
2022/07/03 12:28:52;;;;;;;1.00;0.90;;;;;;;36.84;20.43;98835.16;6949359;28;20280;-81
2022/07/03 12:32:15;;;;;;;1.10;0.90;;;;;;;37.09;20.36;98847.63;6949333;28;20695;-82
2022/07/03 12:35:37;;;;;;;5.80;2.03;;;;;;;37.65;20.31;98833.59;6966639;28;20845;-82
2022/07/03 12:38:59;;;;;;;1.47;0.93;;;;;;;36.50;20.73;98853.00;6956189;28;20295;-82
2022/07/03 12:42:22;;;;;;;2.00;1.80;;;;;;;36.38;21.88;98838.34;6978456;28;20233;-82
2022/07/03 12:45:44;;;;;;;2.30;0.90;;;;;;;37.33;20.73;98827.53;6977656;28;20747;-81
2022/07/03 12:49:11;;;;;;;5.07;4.67;;;;;;;36.96;20.77;98840.56;6956811;28;20234;-82
2022/07/03 12:52:34;;;;;;;6.33;4.40;;;;;;;37.21;21.52;98824.94;6949518;28;20269;-82
2022/07/03 12:56:01;;;;;;;1.43;1.33;;;;;;;36.97;21.69;98833.75;6949589;28;20305;-82
2022/07/03 12:59:25;;;;;;;2.47;1.00;;;;;;;36.98;20.21;98815.72;6948127;28;20308;-82
2022/07/03 13:02:48;;;;;;;0.83;0.83;;;;;;;35.78;21.25;98814.66;6949034;28;20803;-83
2022/07/03 13:06:17;;;;;;;1.73;1.00;;;;;;;36.43;21.09;98787.47;6949800;28;20238;-82
2022/07/03 13:09:39;;;;;;;1.60;0.90;;;;;;;36.94;20.65;98797.16;6957918;28;20198;-82
2022/07/03 13:13:01;;;;;;;2.10;1.03;;;;;;;37.42;21.04;98810.38;6977416;28;20272;-80
2022/07/03 13:16:26;;;;;;;1.37;0.80;;;;;;;36.71;21.13;98804.81;6976368;28;20341;-79
2022/07/03 13:19:47;;;;;;;0.97;0.90;;;;;;;36.86;21.32;98815.09;6974880;28;20227;-80
2022/07/03 13:23:10;;;;;;;0.97;0.80;;;;;;;36.32;20.40;98806.91;6976711;28;20250;-82
2022/07/03 13:26:32;;;;;;;2.43;0.77;;;;;;;36.14;21.65;98794.53;6963717;28;20714;-82
2022/07/03 13:29:54;;;;;;;1.87;1.27;;;;;;;35.93;21.14;98793.31;6971012;28;20269;-81
2022/07/03 13:33:16;;;;;;;2.87;1.10;;;;;;;35.12;21.60;98752.28;6977009;28;20218;-81
2022/07/03 13:36:38;;;;;;;1.90;1.20;;;;;;;36.10;22.23;98784.41;6976433;28;20214;-82
2022/07/03 13:40:01;;;;;;;1.57;1.00;;;;;;;35.39;22.22;98793.38;6977172;28;20227;-83
2022/07/03 13:43:23;;;;;;;1.27;0.83;;;;;;;36.29;21.99;98785.22;6976636;28;20226;-84
2022/07/03 13:46:44;;;;;;;2.10;0.87;;;;;;;36.48;20.72;98781.53;6949919;28;20200;-80
2022/07/03 13:50:06;;;;;;;1.60;0.90;;;;;;;36.28;20.54;98789.22;6949979;28;20213;-83
2022/07/03 13:53:28;;;;;;;1.93;0.90;;;;;;;35.28;21.36;98775.50;6949778;28;20235;-83
2022/07/03 13:56:51;;;;;;;2.20;0.90;;;;;;;35.98;20.95;98751.72;6950292;28;20242;-82
2022/07/03 14:00:13;;;;;;;0.90;0.90;;;;;;;36.31;21.07;98770.81;6948543;28;20246;-81
2022/07/03 14:03:35;;;;;;;1.10;1.00;;;;;;;36.38;20.53;98777.34;6952032;28;20223;-83
2022/07/03 14:06:58;;;;;;;1.10;1.00;;;;;;;36.51;20.35;98775.16;6951227;28;20626;-82
2022/07/03 14:10:21;;;;;;;1.03;1.03;;;;;;;37.12;20.72;98773.78;6977841;28;20283;-82
2022/07/03 14:13:44;;;;;;;1.17;1.03;;;;;;;35.62;20.86;98746.59;6957859;28;20219;-82
2022/07/03 14:17:06;;;;;;;1.10;0.97;;;;;;;35.13;21.74;98753.91;6951667;28;20206;-82
2022/07/03 14:20:28;;;;;;;1.20;1.03;;;;;;;35.88;21.05;98748.69;6952305;28;20213;-82
2022/07/03 14:23:49;;;;;;;1.40;1.13;;;;;;;36.24;21.46;98762.22;6952263;28;20590;-83
2022/07/03 14:34:31;;;;;;;2.83;0.80;;;;;;;36.70;20.73;98736.56;6968529;28;20230;-83
2022/07/03 14:37:52;;;;;;;3.27;1.30;;;;;;;36.59;21.21;98729.09;6981093;28;20479;-83
2022/07/03 14:41:14;;;;;;;1.00;1.00;;;;;;;36.67;20.67;98740.13;6995216;28;20212;-83
2022/07/03 14:44:36;;;;;;;0.97;0.93;;;;;;;37.61;18.95;98742.72;6984405;28;20227;-83
2022/07/03 14:47:59;;;;;;;1.90;1.10;;;;;;;36.95;20.32;98748.19;6953209;28;20214;-83
2022/07/03 14:51:20;;;;;;;1.23;1.13;;;;;;;36.41;20.29;98736.44;6964950;28;20195;-83
2022/07/03 14:54:43;;;;;;;1.30;0.90;;;;;;;36.77;21.98;98735.84;6971742;28;20516;-84
2022/07/03 14:58:06;;;;;;;2.03;1.07;;;;;;;36.20;21.59;98730.47;6975620;28;20326;-82
2022/07/03 15:01:28;;;;;;;2.17;1.20;;;;;;;35.61;22.09;98742.13;6963139;28;20267;-83
2022/07/03 15:05:07;;;;;;;0.90;0.90;;;;;;;36.20;21.19;98739.69;6956511;28;20231;-82
2022/07/03 15:08:52;;;;;;;3.17;1.00;;;;;;;36.39;21.78;98722.81;6956151;28;20228;-82
2022/07/03 15:12:29;;;;;;;0.80;0.80;;;;;;;35.83;22.63;98738.59;6957127;28;20226;-83
2022/07/03 15:15:51;;;;;;;1.70;0.87;;;;;;;35.58;22.51;98737.28;6956774;28;20192;-83
2022/07/03 15:19:12;;;;;;;1.10;1.07;;;;;;;35.23;22.28;98733.75;6955848;28;20226;-83
2022/07/03 15:22:39;;;;;;;1.13;1.10;;;;;;;35.34;23.40;98731.97;6955848;28;20250;-83
2022/07/03 15:26:01;;;;;;;0.93;0.90;;;;;;;35.49;21.88;98733.88;6956476;28;20678;-83
2022/07/03 15:29:22;;;;;;;1.10;1.00;;;;;;;35.52;23.46;98724.72;6955259;28;20219;-82
2022/07/03 15:32:46;;;;;;;2.37;1.43;;;;;;;35.42;23.72;98714.09;6956154;28;20314;-83
2022/07/03 15:36:08;;;;;;;2.37;1.03;;;;;;;35.61;22.78;98732.91;6956802;28;20268;-82
2022/07/03 15:39:36;;;;;;;1.37;1.27;;;;;;;35.02;23.01;98696.78;6955357;28;20222;-83
2022/07/03 15:43:08;;;;;;;1.20;1.10;;;;;;;36.19;23.50;98717.63;6956590;28;20230;-82
2022/07/03 15:46:38;;;;;;;2.70;1.30;;;;;;;35.80;22.87;98722.50;6981528;28;20379;-83
2022/07/03 15:50:00;;;;;;;1.20;1.10;;;;;;;34.63;24.47;98705.47;6983358;28;20213;-83
2022/07/03 15:53:23;;;;;;;1.10;1.00;;;;;;;34.89;23.88;98711.34;6983755;28;20380;-82
2022/07/03 15:56:47;;;;;;;1.90;1.03;;;;;;;34.07;24.72;98690.88;6984235;28;20659;-82
2022/07/03 16:00:12;;;;;;;1.20;1.10;;;;;;;34.76;24.38;98691.03;6984002;28;20699;-83
2022/07/03 16:03:36;;;;;;;1.20;1.10;;;;;;;35.13;24.95;98716.66;6988375;28;20238;-84
2022/07/03 16:06:57;;;;;;;1.27;1.13;;;;;;;34.13;25.31;98705.44;6982056;28;20675;-80
2022/07/03 16:10:19;;;;;;;3.13;2.40;;;;;;;34.54;26.26;98677.66;6980339;28;20210;-82
2022/07/03 16:13:43;;;;;;;1.70;1.33;;;;;;;34.84;24.91;98701.19;6981063;28;20219;-82
2022/07/03 16:17:06;;;;;;;1.27;1.17;;;;;;;35.27;24.39;98709.41;6975906;28;20663;-84